Impacts TAF Board INFO
FOR SITUATIONAL AWARENESS. NOT TO BE USED FOR FLIGHT PLANNING PURPOSES.
IDs:

KATL - Atlanta/Hartsfield-J, GA, US

Issued at 0331 UTC 22 Apr 2018
Updated at 0439 UTC 22 Apr 2018
Potential Impact None Slight Moderate High
Time0352Z 22/05Z 22/06Z 22/07Z 22/08Z 22/09Z 22/10Z 22/11Z 22/12Z 22/13Z 22/14Z 22/15Z 22/16Z 22/17Z>>
Type OBS PRVL PRVL PRVL PRVL PRVL PRVL PRVL PRVL PRVL PRVL PRVL PRVL PRVL
VIS 10 >6 >6 >6 >6 >6 >6 >6 >6 >6 >6 >6 >6 >6
CIG 75 -- 60 60 35 35 20 20 20 12 12 12 12 12
Cover OVC SCT BKN BKN OVC OVC OVC OVC OVC OVC OVC OVC OVC OVC
FltCat VFR VFR VFR VFR VFR VFR MVFR MVFR MVFR MVFR MVFR MVFR MVFR MVFR
WX -- -- -- -- -- -- VCSH VCSH VCSH -SHRA -SHRA -SHRA -SHRA -SHRA
WDir 120 110 100 100 100 100 100 100 100 100 100 100 100 100
WSpd 7 9 9 9 11 11 12 12 12 13 13 13 13 13
WGst -- -- -- -- -- -- -- -- -- 21 21 21 21 21

Raw TAF
KATL 220331Z 2204/2306 11009KT P6SM SCT060
  FM220600 10009KT P6SM BKN060
  FM220800 10011KT P6SM OVC035
  FM221000 10012KT P6SM VCSH OVC020
  FM221300 10013G21KT P6SM -SHRA OVC012
  FM221800 09013G25KT 5SM -SHRA OVC008
  FM230000 10015G25KT 2SM SHRA OVC008


Raw METAR
KATL 220352Z 12007KT 10SM BKN075 BKN200 OVC250 17/05 A3025 RMK AO2 SLP239 T01720050
KATL 220252Z 10007KT 10SM FEW055 SCT075 BKN200 BKN250 17/04 A3025 RMK AO2 SLP239 T01720044 50004
KATL 220152Z 12007KT 10SM SCT055 BKN075 BKN200 BKN250 19/05 A3026 RMK AO2 SLP244 T01890050

METAR Board
Radar Display
Forecast Discussion

FOR SITUATIONAL AWARENESS. NOT TO BE USED FOR FLIGHT PLANNING PURPOSES.